Time;durP1;ratioP1;P1;durP2;ratioP2;P2;SDS_P1;SDS_P2;PMS_P1;PMS_P2;Temp;Humidity;BMP_temperature;BMP_pressure;BME280_temperature;BME280_humidity;BME280_pressure;Samples;Min_cycle;Max_cycle;Signal;HPM_P1;HPM_P2
2022/02/11 00:02:22;;;;;;;2.80;2.20;;;8.10;99.90;;;;;;5076629;28;20492;-65
2022/02/11 00:07:47;;;;;;;2.70;2.28;;;8.00;99.90;;;;;;5083803;28;20223;-64
2022/02/11 00:10:15;;;;;;;4.00;2.80;;;8.00;99.90;;;;;;5093033;28;20650;-65
2022/02/11 00:12:43;;;;;;;2.88;2.53;;;8.00;99.90;;;;;;5087208;28;20780;-65
2022/02/11 00:17:54;;;;;;;4.05;3.00;;;8.10;99.90;;;;;;5092341;28;20242;-65
2022/02/11 00:20:22;;;;;;;3.30;3.00;;;8.10;99.90;;;;;;5093073;28;20235;-65
2022/02/11 00:22:49;;;;;;;4.65;2.95;;;8.00;99.90;;;;;;5092307;28;20220;-65
2022/02/11 00:25:18;;;;;;;5.25;3.88;;;8.10;99.90;;;;;;5093470;28;20216;-65
2022/02/11 00:30:54;;;;;;;6.53;3.10;;;8.10;99.90;;;;;;5092742;28;20230;-65
2022/02/11 00:33:25;;;;;;;4.50;3.00;;;8.10;99.90;;;;;;5079593;28;20228;-65
2022/02/11 00:35:56;;;;;;;3.05;2.75;;;8.10;99.90;;;;;;5091277;28;20232;-65
2022/02/11 00:38:30;;;;;;;4.40;2.95;;;8.10;99.90;;;;;;5092836;28;20249;-65
2022/02/11 01:03:03;;;;;;;5.53;3.28;;;8.10;99.90;;;;;;5081393;28;20235;-64
2022/02/11 01:05:30;;;;;;;3.67;3.20;;;8.10;99.90;;;;;;5090260;28;20270;-64
2022/02/11 01:07:56;;;;;;;6.93;3.65;;;8.10;99.90;;;;;;5092453;28;20227;-64
2022/02/11 01:10:24;;;;;;;4.45;3.00;;;8.10;99.90;;;;;;5091831;28;20573;-64
2022/02/11 01:12:55;;;;;;;5.38;2.97;;;8.20;99.90;;;;;;5092451;28;20219;-64
2022/02/11 01:15:24;;;;;;;6.50;3.08;;;8.20;99.90;;;;;;5096388;28;20228;-64
2022/02/11 01:17:54;;;;;;;5.60;3.80;;;8.20;99.90;;;;;;5092708;28;20294;-64
2022/02/11 01:20:29;;;;;;;4.60;3.60;;;8.20;99.90;;;;;;5092132;28;20389;-64
2022/02/11 01:23:14;;;;;;;3.72;2.58;;;8.20;99.90;;;;;;5091994;28;20573;-65
2022/02/11 01:26:01;;;;;;;6.90;3.40;;;8.20;99.90;;;;;;5079832;28;20226;-64
2022/02/11 01:28:47;;;;;;;3.70;3.40;;;8.20;99.90;;;;;;5091905;28;20212;-64
2022/02/11 01:31:21;;;;;;;4.35;2.90;;;8.20;99.90;;;;;;5085596;28;20304;-64
2022/02/11 01:34:04;;;;;;;6.75;3.85;;;8.20;99.90;;;;;;5091890;28;20295;-64
2022/02/11 01:45:13;;;;;;;5.93;4.78;;;8.20;99.90;;;;;;5051203;28;20661;-65
2022/02/11 01:53:23;;;;;;;6.38;5.78;;;8.20;99.90;;;;;;5054321;28;20223;-64
2022/02/11 01:56:18;;;;;;;7.05;5.28;;;8.20;99.90;;;;;;5091570;28;20235;-65
2022/02/11 02:02:04;;;;;;;7.35;4.82;;;8.20;99.90;;;;;;5092024;28;20234;-65
2022/02/11 02:21:51;;;;;;;8.30;6.70;;;8.20;99.90;;;;;;5049174;28;20279;-67
2022/02/11 02:24:29;;;;;;;9.40;7.20;;;8.20;99.90;;;;;;5088636;28;20231;-64
2022/02/11 02:27:25;;;;;;;11.48;7.05;;;8.20;99.90;;;;;;5091939;28;20223;-64
2022/02/11 02:57:47;;;;;;;5.70;4.20;;;8.30;99.90;;;;;;5117145;27;20659;-64
2022/02/11 03:00:51;;;;;;;6.03;4.03;;;8.30;99.90;;;;;;5130463;27;20277;-64
2022/02/11 03:59:36;;;;;;;6.65;5.30;;;8.50;99.90;;;;;;5086997;28;20240;-64
2022/02/11 04:59:59;;;;;;;8.85;6.22;;;8.60;99.90;;;;;;5128775;27;20233;-64
2022/02/11 05:02:30;;;;;;;6.88;5.55;;;8.50;99.90;;;;;;5126553;27;20219;-64
2022/02/11 05:04:57;;;;;;;7.40;6.47;;;8.50;99.90;;;;;;5115007;27;20231;-64
2022/02/11 05:07:24;;;;;;;8.93;6.10;;;8.50;99.90;;;;;;5113939;27;20223;-64
2022/02/11 05:09:50;;;;;;;6.63;5.97;;;8.50;99.90;;;;;;5114886;27;20231;-64
2022/02/11 05:12:17;;;;;;;7.30;6.60;;;8.50;99.90;;;;;;5115588;27;20226;-64
2022/02/11 05:14:44;;;;;;;8.05;4.95;;;8.50;99.90;;;;;;5115264;27;20240;-64
2022/02/11 05:17:12;;;;;;;10.13;5.25;;;8.50;99.90;;;;;;5114319;27;20242;-64
2022/02/11 05:19:39;;;;;;;11.10;5.72;;;8.50;99.90;;;;;;5113906;27;20223;-64
2022/02/11 05:22:06;;;;;;;10.73;6.53;;;8.50;99.90;;;;;;5113353;27;20691;-64
2022/02/11 05:24:32;;;;;;;9.75;6.32;;;8.50;99.90;;;;;;5113436;27;20234;-64
2022/02/11 05:26:59;;;;;;;10.40;6.30;;;8.50;99.90;;;;;;5113210;27;20223;-64
2022/02/11 05:29:26;;;;;;;6.72;5.43;;;8.50;99.90;;;;;;5113646;27;20223;-64
2022/02/11 05:31:53;;;;;;;5.68;5.10;;;8.50;99.90;;;;;;5113918;27;20423;-64
2022/02/11 05:34:21;;;;;;;8.82;5.68;;;8.50;99.90;;;;;;5115520;27;20238;-64
2022/02/11 05:36:48;;;;;;;7.13;6.35;;;8.50;99.90;;;;;;5115223;27;20222;-64
2022/02/11 05:39:15;;;;;;;6.57;4.97;;;8.50;99.90;;;;;;5114916;27;20226;-64
2022/02/11 05:41:41;;;;;;;8.73;5.25;;;8.50;99.90;;;;;;5115124;27;20535;-64
2022/02/11 05:44:08;;;;;;;4.60;4.13;;;8.50;99.90;;;;;;5114792;27;20223;-64
2022/02/11 05:46:35;;;;;;;7.82;4.75;;;8.50;99.90;;;;;;5115116;27;20219;-64
2022/02/11 05:49:02;;;;;;;6.70;4.88;;;8.50;99.90;;;;;;5114627;27;20235;-64
2022/02/11 05:51:30;;;;;;;5.32;4.45;;;8.50;99.90;;;;;;5114706;27;20230;-64
2022/02/11 05:53:57;;;;;;;6.65;5.43;;;8.50;99.90;;;;;;5114643;27;20223;-64
2022/02/11 05:56:24;;;;;;;7.55;5.50;;;8.50;99.90;;;;;;5114706;27;20657;-64
2022/02/11 05:58:50;;;;;;;5.70;4.57;;;8.40;99.90;;;;;;5114841;27;20226;-64
2022/02/11 06:01:17;;;;;;;5.40;4.85;;;8.40;99.90;;;;;;5114627;27;20219;-64
2022/02/11 06:03:44;;;;;;;7.05;5.78;;;8.40;99.90;;;;;;5114241;27;20246;-64
2022/02/11 06:06:11;;;;;;;7.65;5.95;;;8.40;99.90;;;;;;5113389;27;20219;-64
2022/02/11 06:08:39;;;;;;;8.05;5.57;;;8.50;99.90;;;;;;5114548;27;20230;-64
2022/02/11 06:11:06;;;;;;;8.98;6.32;;;8.50;99.90;;;;;;5114047;27;20231;-64
2022/02/11 06:13:34;;;;;;;11.23;5.75;;;8.50;99.90;;;;;;5114517;27;20215;-64
2022/02/11 06:16:01;;;;;;;7.88;5.18;;;8.50;99.90;;;;;;5113181;27;20227;-64
2022/02/11 06:18:28;;;;;;;11.10;5.15;;;8.40;99.90;;;;;;5114505;27;20226;-64
2022/02/11 06:20:54;;;;;;;6.93;5.00;;;8.40;99.90;;;;;;5114065;27;20227;-64
2022/02/11 06:23:21;;;;;;;12.32;5.80;;;8.40;99.90;;;;;;5114258;27;20561;-64
2022/02/11 06:25:49;;;;;;;7.63;4.60;;;8.50;99.90;;;;;;5114348;27;20231;-64
2022/02/11 06:28:17;;;;;;;6.53;4.35;;;8.50;99.90;;;;;;5113916;27;20276;-64
2022/02/11 06:30:44;;;;;;;9.23;5.38;;;8.40;99.90;;;;;;5113929;27;20295;-64
2022/02/11 06:33:11;;;;;;;6.82;5.40;;;8.40;99.90;;;;;;5113755;27;20233;-64
2022/02/11 06:35:41;;;;;;;8.45;4.80;;;8.40;99.90;;;;;;5114154;27;20223;-64
2022/02/11 06:38:17;;;;;;;8.00;5.25;;;8.50;99.90;;;;;;5113640;27;20299;-65
2022/02/11 06:40:52;;;;;;;7.55;4.70;;;8.40;99.90;;;;;;5113284;27;20226;-64
2022/02/11 06:43:29;;;;;;;10.57;5.63;;;8.50;99.90;;;;;;5111953;28;20241;-64
2022/02/11 06:46:03;;;;;;;10.13;5.32;;;8.50;99.90;;;;;;5113118;27;20683;-64
2022/02/11 06:48:32;;;;;;;7.07;4.88;;;8.50;99.90;;;;;;5113314;27;20214;-64
2022/02/11 06:51:00;;;;;;;5.47;3.85;;;8.50;99.90;;;;;;5113254;27;20235;-64
2022/02/11 06:53:27;;;;;;;8.07;4.93;;;8.50;99.90;;;;;;5113508;27;20219;-65
2022/02/11 06:55:53;;;;;;;7.15;4.95;;;8.40;99.90;;;;;;5114074;27;20231;-65
2022/02/11 06:58:22;;;;;;;7.07;4.65;;;8.40;99.90;;;;;;5113321;27;20223;-64
2022/02/11 07:00:50;;;;;;;8.77;5.07;;;8.40;99.90;;;;;;5113425;27;20694;-65
2022/02/11 07:03:18;;;;;;;6.95;4.70;;;8.50;99.90;;;;;;5113277;27;20227;-63
2022/02/11 07:05:45;;;;;;;5.93;4.85;;;8.50;99.90;;;;;;5113498;27;20231;-64
2022/02/11 07:08:12;;;;;;;6.13;3.83;;;8.50;99.90;;;;;;5112817;27;20223;-64
2022/02/11 07:10:39;;;;;;;7.35;5.25;;;8.50;99.90;;;;;;5113442;28;20226;-64
2022/02/11 07:13:06;;;;;;;6.80;5.10;;;8.50;99.90;;;;;;5112990;28;20242;-64
2022/02/11 07:15:37;;;;;;;7.03;4.97;;;8.50;99.90;;;;;;5113510;27;20222;-63
2022/02/11 07:18:04;;;;;;;4.90;4.50;;;8.50;99.90;;;;;;5112734;27;20231;-64
2022/02/11 07:20:30;;;;;;;6.85;5.05;;;8.50;99.90;;;;;;5113195;27;20602;-63
2022/02/11 07:22:57;;;;;;;7.63;5.40;;;8.50;99.90;;;;;;5113372;27;20219;-64
2022/02/11 07:25:24;;;;;;;10.57;6.93;;;8.60;99.90;;;;;;5112677;27;20222;-65
2022/02/11 07:27:51;;;;;;;7.53;6.53;;;8.50;99.90;;;;;;5113184;27;20223;-64
2022/02/11 07:30:20;;;;;;;8.32;6.65;;;8.50;99.90;;;;;;5112715;27;20224;-65
2022/02/11 07:32:49;;;;;;;9.43;7.20;;;8.50;99.90;;;;;;5112963;27;20248;-64
2022/02/11 07:35:16;;;;;;;10.25;6.90;;;8.50;99.90;;;;;;5112608;27;20302;-63
2022/02/11 07:37:42;;;;;;;9.65;7.10;;;8.50;99.90;;;;;;5113080;27;20215;-63
2022/02/11 07:40:12;;;;;;;11.10;7.13;;;8.50;99.90;;;;;;5112577;27;20577;-64
2022/02/11 07:42:40;;;;;;;9.50;5.75;;;8.50;99.90;;;;;;5113015;27;20219;-63
2022/02/11 07:45:08;;;;;;;10.90;6.97;;;8.60;99.90;;;;;;5112575;27;20573;-63
2022/02/11 07:47:34;;;;;;;12.07;6.80;;;8.60;99.90;;;;;;5112732;27;20684;-64
2022/02/11 07:50:03;;;;;;;7.43;6.70;;;8.60;99.90;;;;;;5112664;27;20231;-63
2022/02/11 07:52:29;;;;;;;14.07;8.18;;;8.60;99.90;;;;;;5112300;27;20222;-64
2022/02/11 07:54:56;;;;;;;12.35;9.70;;;8.60;99.90;;;;;;5112704;27;20227;-64
2022/02/11 07:57:24;;;;;;;13.38;8.77;;;8.60;99.90;;;;;;5112058;27;20233;-64
2022/02/11 07:59:51;;;;;;;8.73;7.75;;;8.60;99.90;;;;;;5112889;27;20294;-64
2022/02/11 08:02:18;;;;;;;9.50;7.53;;;8.60;99.90;;;;;;5112274;27;20234;-64
2022/02/11 08:04:45;;;;;;;10.80;7.20;;;8.70;99.90;;;;;;5112598;27;20238;-64
2022/02/11 08:07:13;;;;;;;10.07;7.05;;;8.60;99.90;;;;;;5112352;27;20239;-63
2022/02/11 08:09:40;;;;;;;9.88;7.55;;;8.60;99.90;;;;;;5112664;28;20215;-64
2022/02/11 08:12:07;;;;;;;13.25;7.75;;;8.60;99.90;;;;;;5112283;28;20219;-64
2022/02/11 08:14:34;;;;;;;16.90;7.32;;;8.60;99.90;;;;;;5112682;27;20226;-65
2022/02/11 08:17:01;;;;;;;7.80;5.90;;;8.60;99.90;;;;;;5112647;27;20231;-65
2022/02/11 08:19:28;;;;;;;8.70;6.35;;;8.60;99.90;;;;;;5112431;27;20226;-63
2022/02/11 08:21:55;;;;;;;9.05;5.78;;;8.60;99.90;;;;;;5112622;27;20246;-63
2022/02/11 08:24:23;;;;;;;11.10;6.78;;;8.60;99.90;;;;;;5112090;27;20231;-64
2022/02/11 08:26:50;;;;;;;12.13;8.10;;;8.60;99.90;;;;;;5112548;27;20219;-64
2022/02/11 08:29:21;;;;;;;10.75;9.63;;;8.60;99.90;;;;;;5112287;27;20354;-64
2022/02/11 08:31:48;;;;;;;11.25;9.18;;;8.60;99.90;;;;;;5112316;27;20290;-63
2022/02/11 08:34:15;;;;;;;9.02;7.07;;;8.60;99.90;;;;;;5112086;27;20284;-63
2022/02/11 08:36:42;;;;;;;8.07;6.63;;;8.60;99.90;;;;;;5112533;27;20307;-63
2022/02/11 08:39:09;;;;;;;8.05;5.28;;;8.60;99.90;;;;;;5114745;27;20219;-63
2022/02/11 08:41:37;;;;;;;8.30;6.35;;;8.60;99.90;;;;;;5116330;27;20235;-63
2022/02/11 08:44:05;;;;;;;10.43;5.03;;;8.70;99.90;;;;;;5116235;27;20219;-64
2022/02/11 08:46:32;;;;;;;6.47;5.20;;;8.60;99.90;;;;;;5115863;27;20230;-64
2022/02/11 08:48:59;;;;;;;6.82;6.10;;;8.60;99.90;;;;;;5116183;27;20851;-63
2022/02/11 08:51:27;;;;;;;11.35;5.95;;;8.70;99.90;;;;;;5115564;27;20308;-63
2022/02/11 08:53:54;;;;;;;7.65;6.07;;;8.60;99.90;;;;;;5115951;27;20692;-63
2022/02/11 08:56:21;;;;;;;8.88;5.97;;;8.70;99.90;;;;;;5115613;27;20575;-64
2022/02/11 08:58:49;;;;;;;9.45;5.78;;;8.70;99.90;;;;;;5115979;27;20210;-64
2022/02/11 09:01:16;;;;;;;6.65;4.93;;;8.60;99.90;;;;;;5115499;27;20235;-64
2022/02/11 09:03:42;;;;;;;9.50;6.10;;;8.60;99.90;;;;;;5116112;27;20689;-63
2022/02/11 09:06:10;;;;;;;6.80;4.97;;;8.60;99.90;;;;;;5115827;27;20227;-63
2022/02/11 09:08:37;;;;;;;8.80;6.25;;;8.60;99.90;;;;;;5115529;27;20230;-64
2022/02/11 09:11:05;;;;;;;12.57;5.90;;;8.60;99.90;;;;;;5115814;28;20715;-64
2022/02/11 09:13:32;;;;;;;8.07;5.10;;;8.60;99.90;;;;;;5115275;28;20231;-64
2022/02/11 09:16:01;;;;;;;9.15;4.65;;;8.50;99.90;;;;;;5115538;27;20222;-63
2022/02/11 09:18:28;;;;;;;8.98;6.22;;;8.60;99.90;;;;;;5115396;27;20231;-64
2022/02/11 09:20:55;;;;;;;8.60;4.93;;;8.60;99.90;;;;;;5115367;27;20245;-63
2022/02/11 09:23:23;;;;;;;9.18;5.00;;;8.50;99.90;;;;;;5115076;27;20229;-64
2022/02/11 09:25:50;;;;;;;8.02;5.47;;;8.60;99.90;;;;;;5115690;27;20314;-64
2022/02/11 09:28:17;;;;;;;5.63;5.07;;;8.60;99.90;;;;;;5115036;27;20711;-64
2022/02/11 09:30:44;;;;;;;8.93;6.35;;;8.70;99.90;;;;;;5115351;27;20230;-64
2022/02/11 09:33:13;;;;;;;10.90;5.85;;;8.70;99.90;;;;;;5115485;27;20693;-64
2022/02/11 09:35:41;;;;;;;8.80;6.40;;;8.60;99.90;;;;;;5115048;27;20211;-64
2022/02/11 09:38:08;;;;;;;9.73;5.22;;;8.60;99.90;;;;;;5115309;27;20689;-64
2022/02/11 09:40:40;;;;;;;6.40;5.80;;;8.60;99.90;;;;;;5114999;27;20223;-65
2022/02/11 09:43:09;;;;;;;8.40;5.57;;;8.50;99.90;;;;;;5115184;27;20647;-63
2022/02/11 09:45:36;;;;;;;7.25;5.10;;;8.50;99.90;;;;;;5114729;27;20677;-63
2022/02/11 09:48:05;;;;;;;5.00;4.57;;;8.40;99.90;;;;;;5115157;27;20227;-63
2022/02/11 09:50:33;;;;;;;9.60;5.70;;;8.50;99.90;;;;;;5114340;27;20231;-64
2022/02/11 09:53:00;;;;;;;8.70;6.78;;;8.50;99.90;;;;;;5114658;27;20250;-64
2022/02/11 09:55:36;;;;;;;9.05;5.90;;;8.50;99.90;;;;;;5114490;27;20223;-64
2022/02/11 09:58:08;;;;;;;7.82;7.03;;;8.60;99.90;;;;;;5114898;27;20218;-64
2022/02/11 10:00:36;;;;;;;9.95;7.38;;;8.60;99.90;;;;;;5114335;27;20219;-64
2022/02/11 10:03:05;;;;;;;12.88;8.10;;;8.70;99.90;;;;;;5114882;27;20225;-64
2022/02/11 10:05:36;;;;;;;7.18;6.47;;;8.80;99.90;;;;;;5114333;27;20280;-64
2022/02/11 10:08:04;;;;;;;7.00;6.28;;;8.70;99.90;;;;;;5114276;27;20226;-64
2022/02/11 10:10:42;;;;;;;10.07;7.05;;;8.80;99.90;;;;;;5114065;27;20227;-63
2022/02/11 10:13:11;;;;;;;11.77;7.55;;;8.80;99.90;;;;;;5114340;27;20231;-64
2022/02/11 10:15:40;;;;;;;7.32;6.60;;;8.80;99.90;;;;;;5114040;27;20227;-64
2022/02/11 10:18:07;;;;;;;7.50;6.70;;;8.80;99.90;;;;;;5114302;27;20235;-64
2022/02/11 10:20:40;;;;;;;11.07;8.50;;;8.90;99.90;;;;;;5114004;27;20234;-63
2022/02/11 10:23:19;;;;;;;12.68;9.55;;;8.90;99.90;;;;;;5114098;27;20230;-64
2022/02/11 10:25:59;;;;;;;15.63;9.32;;;9.00;99.90;;;;;;5114069;27;21015;-65
2022/02/11 10:28:32;;;;;;;18.35;10.80;;;9.00;99.90;;;;;;5113590;27;20222;-64
2022/02/11 10:31:10;;;;;;;10.27;9.20;;;9.10;99.90;;;;;;5114151;27;20688;-64
2022/02/11 10:33:49;;;;;;;14.55;10.32;;;9.10;99.90;;;;;;5113741;27;20231;-64
2022/02/11 10:36:19;;;;;;;11.82;10.20;;;9.10;99.90;;;;;;5114355;27;20226;-64
2022/02/11 10:38:45;;;;;;;9.57;8.20;;;9.20;99.90;;;;;;5113350;27;20223;-64
2022/02/11 10:41:12;;;;;;;9.60;8.60;;;9.20;99.90;;;;;;5114184;27;20223;-64
2022/02/11 10:43:39;;;;;;;9.05;8.05;;;9.20;99.90;;;;;;5113796;27;20219;-64
2022/02/11 10:46:16;;;;;;;9.23;7.60;;;9.20;99.90;;;;;;5113993;27;20227;-64
2022/02/11 10:48:44;;;;;;;17.60;10.48;;;9.30;99.90;;;;;;5113546;27;20222;-64
2022/02/11 10:51:25;;;;;;;14.73;9.88;;;9.30;99.90;;;;;;5113778;27;20235;-64
2022/02/11 10:53:52;;;;;;;13.30;9.80;;;9.20;99.90;;;;;;5113447;27;20285;-64
2022/02/11 10:56:23;;;;;;;13.13;8.82;;;9.20;99.90;;;;;;5113700;27;20307;-64
2022/02/11 10:58:56;;;;;;;12.90;10.95;;;9.20;99.90;;;;;;5113141;27;20230;-64
2022/02/11 11:01:24;;;;;;;12.68;9.50;;;9.20;99.90;;;;;;5113042;27;20292;-64
2022/02/11 11:03:53;;;;;;;13.27;9.15;;;9.10;99.90;;;;;;5113292;27;20230;-63
2022/02/11 11:06:22;;;;;;;10.95;9.85;;;9.10;99.90;;;;;;5113421;27;20215;-64
2022/02/11 11:08:54;;;;;;;13.25;11.27;;;9.10;99.90;;;;;;5112873;27;20239;-64
2022/02/11 11:11:26;;;;;;;10.18;7.85;;;9.10;99.90;;;;;;5113598;28;20219;-64
2022/02/11 11:13:54;;;;;;;10.50;8.02;;;9.10;99.90;;;;;;5112827;28;20220;-64
2022/02/11 11:16:22;;;;;;;8.75;7.53;;;9.10;99.90;;;;;;5113517;28;20234;-64
2022/02/11 11:18:52;;;;;;;10.68;8.10;;;9.20;99.90;;;;;;5112908;28;20227;-64
2022/02/11 11:21:23;;;;;;;8.32;7.47;;;9.10;99.90;;;;;;5113161;28;20227;-64
2022/02/11 11:23:57;;;;;;;11.70;8.32;;;9.10;99.90;;;;;;5112838;28;20219;-64
2022/02/11 11:26:36;;;;;;;6.55;5.95;;;9.10;99.90;;;;;;5113396;28;20218;-64
2022/02/11 11:29:09;;;;;;;7.75;6.60;;;9.20;99.90;;;;;;5112851;27;20223;-64
2022/02/11 11:31:37;;;;;;;7.93;6.53;;;9.20;99.90;;;;;;5113113;28;20301;-64
2022/02/11 11:34:30;;;;;;;11.82;7.22;;;9.30;99.90;;;;;;5112683;28;20230;-65
2022/02/11 11:37:04;;;;;;;8.73;7.75;;;9.40;99.90;;;;;;5112354;28;20560;-64
2022/02/11 11:39:34;;;;;;;8.30;6.43;;;9.50;99.90;;;;;;5112960;27;20222;-63
2022/02/11 11:42:07;;;;;;;11.52;6.35;;;9.60;99.90;;;;;;5112647;27;20227;-63
2022/02/11 11:44:48;;;;;;;6.82;6.22;;;9.70;99.90;;;;;;5112793;27;20223;-63
2022/02/11 11:47:27;;;;;;;10.23;7.45;;;9.80;99.90;;;;;;5112679;27;20244;-64
2022/02/11 11:49:55;;;;;;;7.10;5.50;;;9.80;99.90;;;;;;5112498;27;20231;-63
2022/02/11 11:52:22;;;;;;;7.50;5.93;;;9.80;99.90;;;;;;5112884;27;20237;-63
2022/02/11 11:55:22;;;;;;;11.80;6.00;;;9.90;99.90;;;;;;5112717;27;20569;-63
2022/02/11 11:57:49;;;;;;;9.70;6.43;;;9.90;99.90;;;;;;5112758;27;20315;-63
2022/02/11 12:00:35;;;;;;;5.28;4.65;;;9.90;99.90;;;;;;5112810;27;20765;-63
2022/02/11 12:03:02;;;;;;;11.23;7.38;;;9.90;99.90;;;;;;5112538;27;20782;-64
2022/02/11 12:05:43;;;;;;;8.45;7.60;;;9.90;99.90;;;;;;5112466;27;20214;-64
2022/02/11 12:08:09;;;;;;;6.40;5.30;;;10.00;99.20;;;;;;5112012;27;20218;-64
2022/02/11 12:10:38;;;;;;;7.38;4.95;;;10.00;99.10;;;;;;5112811;27;20227;-64
2022/02/11 12:13:05;;;;;;;8.75;7.18;;;10.00;99.10;;;;;;5113201;27;20223;-64
2022/02/11 12:15:32;;;;;;;9.32;7.55;;;9.90;99.60;;;;;;5116802;27;20571;-64
2022/02/11 12:17:59;;;;;;;7.47;6.15;;;9.90;99.50;;;;;;5116146;27;20237;-64
2022/02/11 12:20:26;;;;;;;8.82;5.70;;;9.90;99.50;;;;;;5116715;27;20310;-64
2022/02/11 12:28:22;;;;;;;9.57;6.38;;;9.90;99.60;;;;;;5116369;27;20222;-64
2022/02/11 12:30:49;;;;;;;10.20;6.65;;;9.90;99.80;;;;;;5116572;27;20223;-65
2022/02/11 12:33:16;;;;;;;6.88;6.30;;;9.90;99.80;;;;;;5115753;27;20325;-64
2022/02/11 12:35:45;;;;;;;6.88;6.05;;;9.90;99.70;;;;;;5107600;27;20215;-64
2022/02/11 12:38:12;;;;;;;10.60;6.30;;;9.90;99.70;;;;;;5095425;28;20219;-64
2022/02/11 12:40:41;;;;;;;6.85;5.55;;;9.90;99.80;;;;;;5102616;27;20693;-64
2022/02/11 12:43:09;;;;;;;5.85;5.25;;;9.90;99.90;;;;;;5115913;27;20254;-64
2022/02/11 12:45:40;;;;;;;7.13;4.78;;;9.90;99.90;;;;;;5116194;27;20230;-64
2022/02/11 12:48:12;;;;;;;7.13;4.30;;;9.90;99.90;;;;;;5115659;27;20298;-64
2022/02/11 12:50:41;;;;;;;6.03;4.10;;;9.80;99.90;;;;;;5116191;27;20223;-64
2022/02/11 12:53:10;;;;;;;8.00;5.28;;;9.80;99.90;;;;;;5115236;27;20262;-64
2022/02/11 12:55:38;;;;;;;10.57;4.97;;;9.70;99.90;;;;;;5116094;27;20231;-64
2022/02/11 12:58:07;;;;;;;6.47;3.88;;;9.70;99.90;;;;;;5115651;27;20238;-64
2022/02/11 13:00:37;;;;;;;5.95;4.30;;;9.70;99.90;;;;;;5115654;27;20696;-65
2022/02/11 13:03:07;;;;;;;5.18;4.65;;;9.80;99.90;;;;;;5115413;27;20538;-64
2022/02/11 13:05:36;;;;;;;5.18;4.78;;;9.80;99.90;;;;;;5115739;27;20223;-63
2022/02/11 13:08:06;;;;;;;5.60;5.10;;;9.90;99.90;;;;;;5115115;27;20697;-63
2022/02/11 13:10:35;;;;;;;5.13;4.40;;;9.90;99.90;;;;;;5115761;28;20230;-64
2022/02/11 13:13:06;;;;;;;5.80;5.30;;;9.90;99.90;;;;;;5114966;28;20219;-65
2022/02/11 13:15:34;;;;;;;5.38;4.97;;;10.00;99.70;;;;;;5115674;27;20673;-64
2022/02/11 13:18:11;;;;;;;6.28;5.63;;;10.00;99.70;;;;;;5109943;27;20220;-64
2022/02/11 13:20:39;;;;;;;8.45;7.72;;;9.90;99.90;;;;;;5098102;28;20223;-64
2022/02/11 13:23:07;;;;;;;13.50;8.45;;;9.90;99.90;;;;;;5112724;27;20226;-64
2022/02/11 13:25:35;;;;;;;8.38;7.68;;;9.90;99.90;;;;;;5094534;28;20220;-64
2022/02/11 13:28:11;;;;;;;9.55;7.60;;;9.90;99.90;;;;;;5094472;28;20230;-64
2022/02/11 13:30:40;;;;;;;6.32;5.82;;;9.90;99.90;;;;;;5108685;27;20234;-64
2022/02/11 13:33:23;;;;;;;7.90;5.68;;;9.90;99.90;;;;;;5096948;27;20224;-64
2022/02/11 13:35:51;;;;;;;5.90;5.40;;;10.00;99.90;;;;;;5095032;28;20246;-64
2022/02/11 13:38:23;;;;;;;5.00;4.60;;;10.00;99.90;;;;;;5100198;27;20223;-64
2022/02/11 13:40:55;;;;;;;7.95;7.30;;;10.00;99.90;;;;;;5114722;27;20241;-64
2022/02/11 13:43:22;;;;;;;6.93;6.43;;;10.00;99.90;;;;;;5114873;27;20550;-64
2022/02/11 13:45:52;;;;;;;6.20;5.70;;;10.00;99.90;;;;;;5114474;27;20257;-64
2022/02/11 13:48:19;;;;;;;9.05;7.00;;;10.10;99.90;;;;;;5113331;27;20222;-64
2022/02/11 13:51:03;;;;;;;5.18;4.78;;;10.00;99.90;;;;;;5114833;27;20229;-64
2022/02/11 13:53:31;;;;;;;7.05;6.45;;;10.00;99.90;;;;;;5113717;27;20314;-62
2022/02/11 13:55:58;;;;;;;6.13;5.60;;;10.00;99.90;;;;;;5114161;27;20227;-65
2022/02/11 13:58:33;;;;;;;6.95;6.45;;;10.00;99.90;;;;;;5093070;28;20219;-63
2022/02/11 14:00:59;;;;;;;8.85;7.97;;;10.00;99.90;;;;;;5093192;28;20313;-65
2022/02/11 14:03:28;;;;;;;6.80;6.20;;;10.00;99.90;;;;;;5090856;28;20318;-65
2022/02/11 14:05:56;;;;;;;7.88;7.18;;;9.90;99.90;;;;;;5112958;27;20234;-64
2022/02/11 14:08:39;;;;;;;8.50;7.85;;;9.90;99.90;;;;;;5113160;27;20280;-63
2022/02/11 14:11:10;;;;;;;9.32;8.52;;;9.90;99.90;;;;;;5112436;27;20233;-64
2022/02/11 14:13:38;;;;;;;7.50;6.28;;;9.90;99.90;;;;;;5111514;27;20208;-64
2022/02/11 14:16:05;;;;;;;6.65;6.05;;;9.90;99.90;;;;;;5114574;28;20962;-65
2022/02/11 14:18:32;;;;;;;7.55;6.95;;;9.90;99.90;;;;;;5103021;27;20223;-63
2022/02/11 14:20:59;;;;;;;11.55;8.38;;;9.80;99.90;;;;;;5098096;28;20234;-64
2022/02/11 14:23:27;;;;;;;7.80;7.00;;;9.80;99.90;;;;;;5114023;27;20238;-64
2022/02/11 14:25:55;;;;;;;7.72;7.05;;;9.80;99.90;;;;;;5114508;27;20218;-64
2022/02/11 14:28:25;;;;;;;6.80;6.30;;;9.80;99.90;;;;;;5113209;27;20595;-64
2022/02/11 14:30:53;;;;;;;7.75;7.05;;;9.80;99.90;;;;;;5114336;27;20241;-63
2022/02/11 14:33:22;;;;;;;9.10;8.35;;;9.80;99.90;;;;;;5113599;27;20310;-64
2022/02/11 14:35:49;;;;;;;9.93;8.55;;;9.80;99.90;;;;;;5113167;27;20234;-63
2022/02/11 14:38:16;;;;;;;7.57;6.80;;;9.80;99.90;;;;;;5113475;27;20223;-63
2022/02/11 14:43:25;;;;;;;8.68;7.00;;;9.70;99.90;;;;;;5095272;27;20227;-64
2022/02/11 14:45:52;;;;;;;6.93;6.38;;;9.70;99.90;;;;;;5099779;27;20537;-64
2022/02/11 14:48:19;;;;;;;6.20;5.47;;;9.70;99.90;;;;;;5107187;27;20219;-64
2022/02/11 14:50:46;;;;;;;5.80;5.32;;;9.70;99.90;;;;;;5100185;28;20692;-63
2022/02/11 14:53:13;;;;;;;6.15;5.72;;;9.70;99.90;;;;;;5112143;27;20227;-64
2022/02/11 14:55:40;;;;;;;7.93;7.13;;;9.70;99.90;;;;;;5111592;27;20227;-63
2022/02/11 14:58:09;;;;;;;7.10;6.50;;;9.60;99.90;;;;;;5099497;28;20219;-64
2022/02/11 15:00:36;;;;;;;7.82;7.13;;;9.60;99.90;;;;;;5112959;27;20345;-64
2022/02/11 15:03:04;;;;;;;6.95;6.25;;;9.70;99.90;;;;;;5113553;27;20222;-64
2022/02/11 15:05:32;;;;;;;8.98;6.47;;;9.60;99.90;;;;;;5133710;27;20688;-63
2022/02/11 15:08:00;;;;;;;6.85;6.25;;;9.60;99.90;;;;;;5110964;27;20255;-64
2022/02/11 15:10:27;;;;;;;7.72;7.00;;;9.60;99.90;;;;;;5101283;27;20215;-65
2022/02/11 15:12:54;;;;;;;11.27;9.80;;;9.70;99.90;;;;;;5110032;27;20230;-64
2022/02/11 15:15:22;;;;;;;9.65;8.60;;;9.60;99.90;;;;;;5101973;28;20216;-65
2022/02/11 15:17:49;;;;;;;10.15;8.82;;;9.60;99.90;;;;;;5107079;27;20223;-65
2022/02/11 15:20:16;;;;;;;9.90;7.80;;;9.60;99.90;;;;;;5112502;27;20220;-63
2022/02/11 15:22:43;;;;;;;10.40;8.10;;;9.60;99.90;;;;;;5128305;27;20214;-68
2022/02/11 15:25:10;;;;;;;7.25;6.65;;;9.60;99.90;;;;;;5108183;27;20276;-69
2022/02/11 15:27:37;;;;;;;16.17;12.40;;;9.70;99.90;;;;;;5110503;27;20306;-69
2022/02/11 15:30:05;;;;;;;9.55;7.40;;;9.60;99.90;;;;;;5100919;27;20219;-68
2022/02/11 15:32:33;;;;;;;8.60;7.70;;;9.70;99.90;;;;;;5099598;27;20246;-67
2022/02/11 15:35:00;;;;;;;7.15;6.55;;;9.70;99.90;;;;;;5108438;27;20223;-63
2022/02/11 15:37:27;;;;;;;12.18;9.20;;;9.70;99.90;;;;;;5108220;27;20215;-64
2022/02/11 15:39:54;;;;;;;7.90;7.15;;;9.70;99.90;;;;;;5097697;28;20700;-64
2022/02/11 15:42:20;;;;;;;5.97;5.47;;;9.60;99.90;;;;;;5103808;27;20234;-63
2022/02/11 15:44:47;;;;;;;10.20;8.82;;;9.60;99.90;;;;;;5112319;27;20234;-63
2022/02/11 15:47:14;;;;;;;24.83;17.40;;;9.60;99.90;;;;;;5112670;27;20222;-63
2022/02/11 15:49:42;;;;;;;9.77;8.77;;;9.60;99.90;;;;;;5107097;27;20225;-65
2022/02/11 15:52:11;;;;;;;10.00;7.72;;;9.50;99.90;;;;;;5108012;27;20596;-63
2022/02/11 15:54:39;;;;;;;8.63;7.82;;;9.50;99.90;;;;;;5091904;28;20315;-64
2022/02/11 15:57:06;;;;;;;10.05;9.02;;;9.40;99.90;;;;;;5092138;28;20705;-66
2022/02/11 15:59:32;;;;;;;9.07;8.18;;;9.40;99.90;;;;;;5097711;27;20218;-65
2022/02/11 16:02:00;;;;;;;9.80;8.70;;;9.40;99.90;;;;;;5111977;27;20231;-64
2022/02/11 16:04:29;;;;;;;11.45;8.93;;;9.30;99.90;;;;;;5104530;27;20235;-64
2022/02/11 16:06:57;;;;;;;9.98;8.98;;;9.30;99.90;;;;;;5107297;27;20227;-65
2022/02/11 16:09:24;;;;;;;16.65;13.32;;;9.30;99.90;;;;;;5108384;27;20219;-64
2022/02/11 16:11:50;;;;;;;13.13;10.52;;;9.20;99.90;;;;;;5093853;28;20232;-65
2022/02/11 16:14:17;;;;;;;10.55;9.45;;;9.20;99.90;;;;;;5095358;28;20335;-65
2022/02/11 16:16:44;;;;;;;9.32;7.80;;;9.20;99.90;;;;;;5107765;28;20224;-64
2022/02/11 16:19:11;;;;;;;13.15;11.68;;;9.10;99.90;;;;;;5105545;27;20215;-64
2022/02/11 16:21:38;;;;;;;10.70;8.85;;;9.20;99.90;;;;;;5106935;27;20246;-64
2022/02/11 16:24:07;;;;;;;12.43;10.40;;;9.20;99.90;;;;;;5104067;27;20224;-65
2022/02/11 16:26:34;;;;;;;11.23;9.85;;;9.10;99.90;;;;;;5091509;28;20573;-65
2022/02/11 16:29:01;;;;;;;9.45;7.20;;;9.10;99.90;;;;;;5092121;28;20297;-65
2022/02/11 16:31:28;;;;;;;14.98;11.13;;;9.20;99.90;;;;;;5103491;27;20615;-65
2022/02/11 16:33:57;;;;;;;20.20;15.88;;;9.20;99.90;;;;;;5111912;27;20264;-65
2022/02/11 16:36:27;;;;;;;18.45;14.35;;;9.20;99.90;;;;;;5111896;27;20326;-72
2022/02/11 16:38:54;;;;;;;15.45;13.85;;;9.30;99.90;;;;;;5112117;27;20227;-64
2022/02/11 16:41:24;;;;;;;13.13;11.38;;;9.30;99.90;;;;;;5107256;27;20702;-64